createdAt,value
2019-02-10T00:01:10.185Z,65.26
2019-02-10T00:03:34.588Z,64.96
2019-02-10T00:05:58.991Z,65.19
2019-02-10T00:08:23.438Z,65.04
2019-02-10T00:10:47.895Z,64.56
2019-02-10T00:13:32.653Z,64.00
2019-02-10T00:15:59.184Z,63.90
2019-02-10T00:18:23.846Z,63.63
2019-02-10T00:20:48.261Z,63.68
2019-02-10T00:23:12.709Z,62.91
2019-02-10T00:25:37.179Z,64.29
2019-02-10T00:28:01.598Z,64.01
2019-02-10T00:30:26.254Z,64.85
2019-02-10T00:32:50.751Z,65.15
2019-02-10T00:35:15.213Z,64.79
2019-02-10T00:37:39.604Z,64.53
2019-02-10T00:40:05.183Z,64.60
2019-02-10T00:42:29.587Z,64.22
2019-02-10T00:44:54.010Z,64.56
2019-02-10T00:47:28.867Z,63.49
2019-02-10T00:49:53.301Z,63.38
2019-02-10T00:52:17.708Z,62.92
2019-02-10T00:54:42.134Z,62.68
2019-02-10T00:57:06.538Z,63.06
2019-02-10T00:59:30.977Z,63.11
2019-02-10T01:01:55.388Z,63.27
2019-02-10T01:04:19.818Z,64.07
2019-02-10T01:06:44.227Z,64.90
2019-02-10T01:09:09.088Z,65.05
2019-02-10T01:11:33.557Z,64.25
2019-02-10T01:13:57.952Z,64.56
2019-02-10T01:16:22.373Z,64.16
2019-02-10T01:19:06.177Z,64.59
2019-02-10T01:21:31.034Z,64.29
2019-02-10T01:23:55.424Z,64.92
2019-02-10T01:26:19.835Z,64.57
2019-02-10T01:28:44.243Z,65.96
2019-02-10T01:31:08.906Z,65.66
2019-02-10T01:33:33.298Z,65.55
2019-02-10T01:35:57.737Z,65.64
2019-02-10T01:38:22.140Z,64.98
2019-02-10T01:40:46.552Z,65.75
2019-02-10T01:43:11.010Z,64.80
2019-02-10T01:45:35.496Z,63.89
2019-02-10T01:47:59.899Z,64.05
2019-02-10T01:50:24.336Z,63.91
2019-02-10T01:52:48.739Z,64.25
2019-02-10T01:55:14.018Z,64.61
2019-02-10T01:57:38.447Z,64.86
2019-02-10T02:00:03.225Z,64.94
2019-02-10T02:02:27.634Z,65.03
2019-02-10T02:04:52.029Z,64.77
2019-02-10T02:07:16.447Z,63.88
2019-02-10T02:09:40.849Z,63.60
2019-02-10T02:12:05.412Z,64.65
2019-02-10T02:14:29.816Z,64.43
2019-02-10T02:16:54.247Z,64.47
2019-02-10T02:19:18.645Z,64.26
2019-02-10T02:21:43.062Z,63.97
2019-02-10T02:24:07.458Z,64.81
2019-02-10T02:26:31.877Z,64.70
2019-02-10T02:28:56.273Z,64.25
2019-02-10T02:31:20.660Z,64.95
2019-02-10T02:33:45.089Z,64.38
2019-02-10T02:36:09.482Z,64.41
2019-02-10T02:38:33.887Z,65.36
2019-02-10T02:40:58.286Z,65.09
2019-02-10T02:43:22.706Z,64.90
2019-02-10T02:45:47.104Z,65.25
2019-02-10T02:48:11.607Z,65.06
2019-02-10T02:50:35.989Z,65.07
2019-02-10T02:53:00.395Z,64.81
2019-02-10T02:55:24.785Z,64.63
2019-02-10T02:57:49.215Z,64.59
2019-02-10T03:00:13.608Z,64.17
2019-02-10T03:02:38.002Z,65.29
2019-02-10T03:05:02.514Z,65.21
2019-02-10T03:07:26.903Z,65.31
2019-02-10T03:09:51.391Z,65.10
2019-02-10T03:12:15.782Z,65.65
2019-02-10T03:14:40.192Z,65.97
2019-02-10T03:17:04.607Z,65.39
2019-02-10T03:19:29.031Z,65.90
2019-02-10T03:21:53.424Z,65.27
2019-02-10T03:24:17.843Z,65.51
2019-02-10T03:26:42.235Z,65.16
2019-02-10T03:29:06.654Z,64.49
2019-02-10T03:31:31.053Z,65.72
2019-02-10T03:33:55.437Z,65.80
2019-02-10T03:36:19.863Z,65.74
2019-02-10T03:38:44.284Z,65.66
2019-02-10T03:41:08.678Z,65.71
2019-02-10T03:43:33.160Z,65.83
2019-02-10T03:45:57.555Z,65.62
2019-02-10T03:48:21.952Z,65.47
2019-02-10T03:50:46.373Z,66.24
2019-02-10T03:53:10.830Z,66.28
2019-02-10T03:55:35.263Z,66.41
2019-02-10T03:57:59.726Z,65.88
2019-02-10T04:00:24.150Z,65.13
2019-02-10T04:02:48.625Z,65.14
2019-02-10T04:05:13.031Z,66.16
2019-02-10T04:07:37.414Z,66.01
2019-02-10T04:10:01.883Z,66.32
2019-02-10T04:12:26.334Z,65.64
2019-02-10T04:14:50.828Z,65.94
2019-02-10T04:17:15.247Z,66.60
2019-02-10T04:19:39.658Z,66.64
2019-02-10T04:22:04.148Z,66.28
2019-02-10T04:24:28.528Z,65.94
2019-02-10T04:26:52.946Z,66.64
2019-02-10T04:29:17.344Z,66.37
2019-02-10T04:31:41.739Z,66.49
2019-02-10T04:34:06.263Z,66.73
2019-02-10T04:36:30.683Z,66.96
2019-02-10T04:38:55.074Z,66.58
2019-02-10T04:41:19.494Z,66.91
2019-02-10T04:43:43.948Z,66.78
2019-02-10T04:46:08.341Z,66.51
2019-02-10T04:48:32.750Z,66.17
2019-02-10T04:50:57.144Z,66.72
2019-02-10T04:53:21.558Z,67.12
2019-02-10T04:55:47.480Z,67.51
2019-02-10T04:58:11.900Z,66.65
2019-02-10T05:00:36.291Z,66.31
2019-02-10T05:03:00.709Z,65.68
2019-02-10T05:05:25.105Z,66.43
2019-02-10T05:07:54.549Z,66.94
2019-02-10T05:10:15.682Z,66.26
2019-02-10T05:12:40.167Z,66.73
2019-02-10T05:15:06.002Z,67.44
2019-02-10T05:17:30.423Z,66.91
2019-02-10T05:19:54.814Z,66.94
2019-02-10T05:22:19.273Z,67.71
2019-02-10T05:24:43.696Z,67.75
2019-02-10T05:27:08.088Z,67.89
2019-02-10T05:29:32.501Z,68.80
2019-02-10T05:31:56.905Z,69.16
2019-02-10T05:34:21.333Z,68.58
2019-02-10T05:36:45.726Z,68.63
2019-02-10T05:39:10.153Z,68.71
2019-02-10T05:41:34.543Z,68.74
2019-02-10T05:43:58.973Z,69.10
2019-02-10T05:46:23.360Z,68.24
2019-02-10T05:48:47.797Z,67.47
2019-02-10T05:51:12.253Z,68.51
2019-02-10T05:53:36.669Z,69.12
2019-02-10T05:56:01.082Z,69.32
2019-02-10T05:58:25.488Z,67.93
2019-02-10T06:00:49.899Z,68.29
2019-02-10T06:03:14.284Z,68.19
2019-02-10T06:05:38.704Z,67.88
2019-02-10T06:08:03.176Z,67.51
2019-02-10T06:10:27.595Z,67.79
2019-02-10T06:12:52.073Z,67.80
2019-02-10T06:15:16.486Z,67.76
2019-02-10T06:17:40.877Z,67.48
2019-02-10T06:20:08.269Z,67.75
2019-02-10T06:22:32.676Z,68.15
2019-02-10T06:24:57.097Z,68.61
2019-02-10T06:27:21.508Z,69.72
2019-02-10T06:29:45.927Z,69.48
2019-02-10T06:32:10.337Z,68.62
2019-02-10T06:34:34.725Z,68.69
2019-02-10T06:36:59.167Z,69.27
2019-02-10T06:39:23.560Z,69.04
2019-02-10T06:41:47.981Z,68.91
2019-02-10T06:44:12.418Z,68.77
2019-02-10T06:46:36.837Z,69.13
2019-02-10T06:49:01.232Z,68.61
2019-02-10T06:51:25.657Z,69.04
2019-02-10T06:53:50.063Z,69.03
2019-02-10T06:56:14.479Z,68.73
2019-02-10T06:58:38.873Z,68.44
2019-02-10T07:01:04.929Z,70.16
2019-02-10T07:03:33.428Z,69.97
2019-02-10T07:05:57.848Z,69.28
2019-02-10T07:08:30.166Z,69.29
2019-02-10T07:10:48.337Z,69.30
2019-02-10T07:13:15.725Z,70.50
2019-02-10T07:16:15.920Z,71.29
2019-02-10T07:19:16.281Z,70.30
2019-02-10T07:21:40.741Z,70.79
2019-02-10T07:24:08.221Z,71.37
2019-02-10T07:26:40.675Z,70.16
2019-02-10T07:29:06.039Z,70.55
2019-02-10T07:31:30.497Z,70.54
2019-02-10T07:34:12.823Z,69.83
2019-02-10T07:36:49.223Z,70.29
2019-02-10T07:39:35.742Z,71.11
2019-02-10T07:42:22.120Z,71.06
2019-02-10T07:45:11.987Z,69.97
2019-02-10T07:47:51.187Z,71.36
2019-02-10T07:50:18.664Z,71.75
2019-02-10T07:52:54.757Z,71.12
2019-02-10T07:55:46.330Z,71.55
2019-02-10T07:58:25.612Z,71.36
2019-02-10T08:01:12.347Z,71.26
2019-02-10T08:04:00.846Z,72.44
2019-02-10T08:06:37.136Z,72.04
2019-02-10T08:09:22.525Z,71.29
2019-02-10T08:12:04.715Z,72.51
2019-02-10T08:14:43.808Z,72.36
2019-02-10T08:17:29.200Z,72.79
2019-02-10T08:19:59.361Z,72.61
2019-02-10T08:22:29.533Z,72.10
2019-02-10T08:24:59.557Z,72.15
2019-02-10T08:27:49.160Z,72.04
2019-02-10T08:30:22.535Z,72.47
2019-02-10T08:32:50.083Z,71.21
2019-02-10T08:35:35.449Z,71.34
2019-02-10T08:38:11.997Z,72.12
2019-02-10T08:40:58.068Z,71.26
2019-02-10T08:43:40.634Z,71.55
2019-02-10T08:46:26.126Z,72.65
2019-02-10T08:48:56.252Z,72.11
2019-02-10T08:51:44.509Z,71.76
2019-02-10T08:54:09.570Z,71.91
2019-02-10T08:56:33.980Z,71.54
2019-02-10T08:58:58.385Z,71.62
2019-02-10T09:01:22.821Z,71.27
2019-02-10T09:03:47.221Z,70.94
2019-02-10T09:06:11.657Z,71.78
2019-02-10T09:08:36.044Z,71.38
2019-02-10T09:11:00.692Z,72.27
2019-02-10T09:13:25.089Z,73.27
2019-02-10T09:15:49.530Z,74.34
2019-02-10T09:18:14.009Z,73.37
2019-02-10T09:20:38.451Z,73.50
2019-02-10T09:23:02.841Z,73.23
2019-02-10T09:25:27.280Z,73.11
2019-02-10T09:27:51.696Z,73.34
2019-02-10T09:30:16.309Z,74.84
2019-02-10T09:32:40.814Z,74.65
2019-02-10T09:35:07.154Z,74.24
2019-02-10T09:37:31.590Z,73.25
2019-02-10T09:39:56.872Z,74.16
2019-02-10T09:42:21.295Z,73.67
2019-02-10T09:44:45.696Z,73.83
2019-02-10T09:47:10.106Z,74.22
2019-02-10T09:49:34.639Z,73.57
2019-02-10T09:51:59.094Z,73.32
2019-02-10T09:54:23.489Z,73.29
2019-02-10T09:56:47.923Z,72.41
2019-02-10T09:59:12.333Z,74.89
2019-02-10T10:01:36.858Z,74.19
2019-02-10T10:04:01.257Z,74.18
2019-02-10T10:06:25.737Z,73.28
2019-02-10T10:08:50.167Z,72.95
2019-02-10T10:11:14.575Z,73.69
2019-02-10T10:13:39.011Z,73.29
2019-02-10T10:16:03.481Z,74.64
2019-02-10T10:18:27.918Z,74.71
2019-02-10T10:20:52.376Z,73.43
2019-02-10T10:23:16.806Z,73.82
2019-02-10T10:25:41.262Z,74.91
2019-02-10T10:28:05.700Z,75.34
2019-02-10T10:30:30.102Z,74.48
2019-02-10T10:32:54.513Z,74.77
2019-02-10T10:35:18.983Z,73.53
2019-02-10T10:37:43.376Z,73.24
2019-02-10T10:40:09.748Z,74.15
2019-02-10T10:42:34.149Z,75.50
2019-02-10T10:44:58.574Z,74.04
2019-02-10T10:47:26.655Z,73.59
2019-02-10T10:49:51.149Z,73.16
2019-02-10T10:52:15.613Z,73.28
2019-02-10T10:54:42.740Z,73.71
2019-02-10T10:57:06.264Z,73.71
2019-02-10T10:59:30.681Z,73.60
2019-02-10T11:01:55.098Z,73.27
2019-02-10T11:04:19.521Z,72.99
2019-02-10T11:06:43.955Z,73.63
2019-02-10T11:09:08.513Z,74.67
2019-02-10T11:11:32.914Z,73.27
2019-02-10T11:13:57.343Z,73.10
2019-02-10T11:16:21.816Z,73.70
2019-02-10T11:18:46.231Z,74.67
2019-02-10T11:21:10.738Z,75.05
2019-02-10T11:23:35.143Z,75.54
2019-02-10T11:25:59.558Z,74.34
2019-02-10T11:28:23.971Z,74.63
2019-02-10T11:30:48.412Z,76.25
2019-02-10T11:33:12.845Z,76.01
2019-02-10T11:35:37.269Z,76.32
2019-02-10T11:38:01.674Z,75.79
2019-02-10T11:40:26.162Z,75.70
2019-02-10T11:42:50.586Z,75.73
2019-02-10T11:45:17.993Z,76.32
2019-02-10T11:47:42.478Z,76.38
2019-02-10T11:50:09.750Z,75.43
2019-02-10T11:52:34.214Z,75.98
2019-02-10T11:54:58.629Z,77.07
2019-02-10T11:57:23.058Z,76.01
2019-02-10T11:59:47.542Z,76.61
2019-02-10T12:02:11.957Z,77.76
2019-02-10T12:04:36.444Z,78.44
2019-02-10T12:07:00.888Z,77.67
2019-02-10T12:09:25.282Z,78.46
2019-02-10T12:11:49.781Z,78.08
2019-02-10T12:14:14.182Z,78.75
2019-02-10T12:16:38.681Z,78.16
2019-02-10T12:19:03.078Z,78.76
2019-02-10T12:21:27.529Z,78.35
2019-02-10T12:23:51.920Z,78.13
2019-02-10T12:26:16.399Z,78.02
2019-02-10T12:28:40.819Z,78.00
2019-02-10T12:31:05.286Z,77.39
2019-02-10T12:33:29.705Z,77.23
2019-02-10T12:35:58.381Z,77.25
2019-02-10T12:38:20.226Z,77.06
2019-02-10T12:40:44.634Z,76.99
2019-02-10T12:43:09.070Z,76.89
2019-02-10T12:45:33.535Z,76.35
2019-02-10T12:47:58.044Z,76.61
2019-02-10T12:50:22.588Z,76.96
2019-02-10T12:52:47.095Z,76.58
2019-02-10T12:55:12.640Z,76.35
2019-02-10T12:57:37.066Z,75.87
2019-02-10T13:00:01.488Z,75.67
2019-02-10T13:02:31.076Z,75.76
2019-02-10T13:04:55.472Z,75.35
2019-02-10T13:07:19.890Z,75.58
2019-02-10T13:09:44.470Z,74.87
2019-02-10T13:12:08.893Z,75.86
2019-02-10T13:14:33.333Z,75.65
2019-02-10T13:16:57.768Z,75.24
2019-02-10T13:19:22.224Z,75.49
2019-02-10T13:21:46.720Z,75.44
2019-02-10T13:24:11.289Z,75.74
2019-02-10T13:26:35.701Z,75.49
2019-02-10T13:29:00.136Z,75.10
2019-02-10T13:31:24.559Z,75.21
2019-02-10T13:33:48.990Z,74.69
2019-02-10T13:36:13.492Z,74.79
2019-02-10T13:38:37.938Z,74.75
2019-02-10T13:41:02.364Z,75.26
2019-02-10T13:43:33.328Z,75.70
2019-02-10T13:45:52.971Z,75.18
2019-02-10T13:48:17.401Z,75.09
2019-02-10T13:50:42.765Z,75.42
2019-02-10T13:53:08.961Z,75.06
2019-02-10T13:55:33.474Z,75.17
2019-02-10T13:57:57.959Z,75.68
2019-02-10T14:00:25.801Z,75.70
2019-02-10T14:02:50.214Z,75.60
2019-02-10T14:05:14.785Z,75.65
2019-02-10T14:07:39.219Z,75.27
2019-02-10T14:10:04.509Z,77.00
2019-02-10T14:12:28.929Z,76.25
2019-02-10T14:14:53.373Z,76.92
2019-02-10T14:17:30.316Z,76.10
2019-02-10T14:19:54.760Z,76.34
2019-02-10T14:22:19.187Z,76.38
2019-02-10T14:24:43.621Z,76.80
2019-02-10T14:27:08.061Z,75.98
2019-02-10T14:29:32.499Z,75.31
2019-02-10T14:31:56.915Z,75.91
2019-02-10T14:34:21.392Z,76.12
2019-02-10T14:36:45.791Z,76.51
2019-02-10T14:39:10.329Z,76.51
2019-02-10T14:41:34.739Z,76.39
2019-02-10T14:43:59.156Z,76.73
2019-02-10T14:46:23.684Z,76.78
2019-02-10T14:48:48.226Z,76.77
2019-02-10T14:51:12.668Z,77.66
2019-02-10T14:53:37.079Z,77.34
2019-02-10T14:56:01.504Z,77.21
2019-02-10T14:58:25.919Z,76.86
2019-02-10T15:00:50.373Z,77.14
2019-02-10T15:03:14.756Z,76.28
2019-02-10T15:05:39.274Z,76.94
2019-02-10T15:08:03.789Z,78.01
2019-02-10T15:10:28.209Z,77.38
2019-02-10T15:12:52.635Z,77.08
2019-02-10T15:15:17.283Z,76.45
2019-02-10T15:17:41.716Z,76.25
2019-02-10T15:20:08.881Z,76.97
2019-02-10T15:22:33.352Z,77.09
2019-02-10T15:24:57.779Z,76.88
2019-02-10T15:27:22.218Z,76.48
2019-02-10T15:29:46.625Z,76.54
2019-02-10T15:32:16.709Z,77.09
2019-02-10T15:34:37.206Z,77.26
2019-02-10T15:37:01.659Z,76.85
2019-02-10T15:39:26.097Z,77.02
2019-02-10T15:41:50.524Z,76.67
2019-02-10T15:44:14.976Z,77.00
2019-02-10T15:46:39.436Z,76.25
2019-02-10T15:49:03.969Z,76.31
2019-02-10T15:51:36.748Z,76.30
2019-02-10T15:53:54.527Z,75.57
2019-02-10T15:56:18.939Z,76.68
2019-02-10T15:58:43.370Z,76.74
2019-02-10T16:01:07.854Z,76.85
2019-02-10T16:03:32.296Z,76.36
2019-02-10T16:05:56.708Z,76.89
2019-02-10T16:08:21.195Z,77.11
2019-02-10T16:10:45.660Z,77.22
2019-02-10T16:13:10.095Z,76.87
2019-02-10T16:15:34.525Z,77.33
2019-02-10T16:17:58.956Z,77.52
2019-02-10T16:20:25.114Z,76.97
2019-02-10T16:22:49.648Z,76.98
2019-02-10T16:25:14.093Z,77.20
2019-02-10T16:27:38.641Z,77.07
2019-02-10T16:30:03.202Z,76.86
2019-02-10T16:32:27.921Z,76.23
2019-02-10T16:34:52.383Z,76.45
2019-02-10T16:37:16.773Z,76.41
2019-02-10T16:39:41.191Z,76.81
2019-02-10T16:42:05.702Z,75.86
2019-02-10T16:44:30.106Z,75.73
2019-02-10T16:46:54.592Z,75.80
2019-02-10T16:49:18.975Z,75.64
2019-02-10T16:51:43.429Z,75.54
2019-02-10T16:54:07.905Z,74.64
2019-02-10T16:56:32.412Z,74.64
2019-02-10T16:58:56.816Z,74.42
2019-02-10T17:01:21.249Z,74.00
2019-02-10T17:03:45.656Z,74.93
2019-02-10T17:06:10.196Z,73.84
2019-02-10T17:08:34.606Z,74.69
2019-02-10T17:10:59.042Z,74.95
2019-02-10T17:13:23.449Z,74.32
2019-02-10T17:15:47.917Z,73.79
2019-02-10T17:18:12.370Z,72.94
2019-02-10T17:20:36.874Z,73.16
2019-02-10T17:23:01.295Z,73.10
2019-02-10T17:25:28.281Z,72.65
2019-02-10T17:27:52.713Z,72.91
2019-02-10T17:30:17.202Z,73.19
2019-02-10T17:32:41.711Z,73.29
2019-02-10T17:35:09.062Z,74.52
2019-02-10T17:37:33.519Z,76.69
2019-02-10T17:39:58.008Z,77.97
2019-02-10T17:42:22.595Z,77.84
2019-02-10T17:44:47.008Z,77.61
2019-02-10T17:47:11.431Z,76.77
2019-02-10T17:49:35.885Z,76.37
2019-02-10T17:52:00.362Z,75.78
2019-02-10T17:54:24.884Z,75.09
2019-02-10T17:56:49.313Z,75.85
2019-02-10T17:59:13.818Z,75.42
2019-02-10T18:01:38.459Z,75.24
2019-02-10T18:04:02.889Z,75.15
2019-02-10T18:06:27.295Z,74.75
2019-02-10T18:08:51.818Z,74.11
2019-02-10T18:11:16.255Z,73.79
2019-02-10T18:13:40.682Z,73.75
2019-02-10T18:16:23.117Z,72.29
2019-02-10T18:18:51.862Z,72.55
2019-02-10T18:21:35.548Z,72.33
2019-02-10T18:24:07.367Z,71.96
2019-02-10T18:26:33.403Z,72.21
2019-02-10T18:29:05.141Z,71.72
2019-02-10T18:31:34.095Z,72.16
2019-02-10T18:34:02.714Z,71.69
2019-02-10T18:36:28.826Z,71.73
2019-02-10T18:38:57.298Z,71.20
2019-02-10T18:41:39.161Z,71.78
2019-02-10T18:44:00.007Z,71.67
2019-02-10T18:46:35.098Z,71.34
2019-02-10T18:49:09.833Z,71.37
2019-02-10T18:51:35.921Z,71.08
2019-02-10T18:54:17.046Z,71.00
2019-02-10T18:56:43.117Z,70.92
2019-02-10T18:59:12.167Z,70.59
2019-02-10T19:01:38.244Z,70.92
2019-02-10T19:04:16.414Z,70.85
2019-02-10T19:06:51.460Z,70.32
2019-02-10T19:09:29.502Z,70.66
2019-02-10T19:12:07.290Z,70.53
2019-02-10T19:14:44.379Z,70.30
2019-02-10T19:17:28.140Z,71.18
2019-02-10T19:20:06.093Z,70.89
2019-02-10T19:22:47.373Z,71.47
2019-02-10T19:25:13.413Z,70.67
2019-02-10T19:27:42.111Z,71.07
2019-02-10T19:30:19.881Z,71.23
2019-02-10T19:32:45.919Z,71.60
2019-02-10T19:35:12.085Z,71.12
2019-02-10T19:37:41.211Z,71.20
2019-02-10T19:40:18.224Z,71.01
2019-02-10T19:43:00.147Z,71.65
2019-02-10T19:45:32.414Z,71.87
2019-02-10T19:48:03.926Z,71.86
2019-02-10T19:50:35.974Z,71.73
2019-02-10T19:53:11.018Z,72.18
2019-02-10T19:55:55.385Z,72.30
2019-02-10T19:58:30.332Z,72.81
2019-02-10T20:01:02.308Z,73.50
2019-02-10T20:03:40.125Z,73.26
2019-02-10T20:06:08.968Z,73.16
2019-02-10T20:08:35.101Z,72.76
2019-02-10T20:11:17.324Z,72.02
2019-02-10T20:13:46.096Z,71.59
2019-02-10T20:16:24.033Z,71.43
2019-02-10T20:19:04.952Z,71.86
2019-02-10T20:21:36.975Z,72.30
2019-02-10T20:24:11.756Z,71.67
2019-02-10T20:26:43.354Z,72.22
2019-02-10T20:29:15.239Z,72.16
2019-02-10T20:31:41.317Z,72.52
2019-02-10T20:34:10.161Z,72.86
2019-02-10T20:36:39.130Z,73.28
2019-02-10T20:39:08.351Z,73.73
2019-02-10T20:41:37.104Z,74.35
2019-02-10T20:44:03.168Z,74.52
2019-02-10T20:46:47.186Z,73.98
2019-02-10T20:49:13.249Z,72.79
2019-02-10T20:51:48.171Z,73.11
2019-02-10T20:54:14.341Z,74.15
2019-02-10T20:56:40.363Z,73.88
2019-02-10T20:59:15.493Z,74.13
2019-02-10T21:01:56.709Z,74.64
2019-02-10T21:04:31.727Z,74.23
2019-02-10T21:07:00.588Z,74.21
2019-02-10T21:09:32.362Z,74.39
2019-02-10T21:11:58.465Z,73.79
2019-02-10T21:14:29.972Z,73.86
2019-02-10T21:16:58.963Z,74.37
2019-02-10T21:19:30.902Z,74.82
2019-02-10T21:21:56.945Z,75.45
2019-02-10T21:24:37.831Z,75.50
2019-02-10T21:27:12.912Z,75.76
2019-02-10T21:29:44.738Z,76.23
2019-02-10T21:32:28.876Z,75.92
2019-02-10T21:35:03.891Z,77.21
2019-02-10T21:37:29.921Z,77.51
2019-02-10T21:39:58.675Z,78.42
2019-02-10T21:42:28.957Z,78.74
2019-02-10T21:44:54.914Z,79.39
2019-02-10T21:47:34.679Z,79.66
2019-02-10T21:49:59.071Z,79.56
2019-02-10T21:52:23.508Z,80.13
2019-02-10T21:54:47.904Z,79.84
2019-02-10T21:57:12.708Z,79.96
2019-02-10T21:59:37.104Z,80.42
2019-02-10T22:02:01.617Z,80.17
2019-02-10T22:04:26.030Z,80.52
2019-02-10T22:06:50.454Z,80.91
2019-02-10T22:09:14.927Z,81.15
2019-02-10T22:11:39.335Z,81.19
2019-02-10T22:14:03.774Z,80.87
2019-02-10T22:16:28.169Z,81.28
2019-02-10T22:18:52.604Z,81.15
2019-02-10T22:21:17.013Z,81.24
2019-02-10T22:23:41.432Z,81.53
2019-02-10T22:26:05.831Z,82.03
2019-02-10T22:28:30.258Z,82.59
2019-02-10T22:30:54.656Z,83.12
2019-02-10T22:33:19.092Z,83.37
2019-02-10T22:35:43.571Z,83.62
2019-02-10T22:38:08.010Z,83.84
2019-02-10T22:40:32.398Z,84.11
2019-02-10T22:42:56.833Z,84.20
2019-02-10T22:45:21.285Z,84.23
2019-02-10T22:47:45.707Z,84.52
2019-02-10T22:50:12.807Z,84.48
2019-02-10T22:52:37.238Z,84.42
2019-02-10T22:55:01.629Z,84.45
2019-02-10T22:57:26.022Z,84.42
2019-02-10T22:59:50.442Z,84.74
2019-02-10T23:02:30.588Z,84.93
2019-02-10T23:04:55.005Z,85.16
2019-02-10T23:07:19.475Z,85.26
2019-02-10T23:09:43.904Z,84.88
2019-02-10T23:12:08.306Z,84.50
2019-02-10T23:14:32.725Z,83.89
2019-02-10T23:16:57.110Z,84.18
2019-02-10T23:19:21.532Z,84.16
2019-02-10T23:21:45.920Z,84.30
2019-02-10T23:24:10.335Z,84.22
2019-02-10T23:26:34.797Z,84.35
2019-02-10T23:28:59.212Z,82.66
2019-02-10T23:31:23.610Z,83.06
2019-02-10T23:33:48.026Z,82.92
2019-02-10T23:36:12.419Z,82.68
2019-02-10T23:38:36.833Z,81.52
2019-02-10T23:41:01.236Z,81.68
2019-02-10T23:43:25.660Z,82.54
2019-02-10T23:45:50.040Z,82.88
2019-02-10T23:48:14.442Z,83.12
2019-02-10T23:50:38.855Z,83.51
2019-02-10T23:53:03.260Z,84.09
2019-02-10T23:55:27.687Z,84.12
2019-02-10T23:57:52.071Z,84.33
